map of SMR home
SMR - Airport
Location
City:  Santa Marta, Magdalena, Colombia
Name:Simón Bolívar International Airport
ICAO:SKSM
IATA:SMR

Details
Type:Airport (Aerodrome, Airfield)
Use:International (customs port of entry)
Latitude:11°07'11"N (11.119722)
Longitude:74°13'51"W (-74.230832)
Elevation:22 ft (7 m)
Variation:8.10°W (WMM2015 magnetic declination)
-0.12° annual change
Runways:1
Longest:5577 × 98 ft (1700 × 30 m), paved

Time
Time Zone:UTC-5
Local Time:

Weather
METAR:SKSM 141200Z 03004KT 9999 FEW020 SCT200 23/21 A2984

Related Locations
Nearby:
Farthest:XCH: 12384 mi / 19930 km
Christmas Island, CX

Find:

   beyond  
but within

Other Information
Maps:
NOTAMs:
Links:
Sources:

  
flag of Colombia
flag of Magdalena
flag of Santa Marta
  

Sectional Chart

Flight Planning
at skyvector.com

Satellite Image

Google Maps Satellite view

 

Copyright © 2004-2017 Karl L. Swartz. All rights reserved.
The Great Circle Mapper name and logo are trademarks of the Great Circle Mapper.
All other trademarks mentioned herein belong to their respective owners.
Please see credits for attibutions and further copyright information.

  Follow gcmap on Facebook Follow gcmap on Twitter Follow gcmap on Google+ GCmap on LinkedIn

hCard Microformat

Geo Microformat